Time;durP1;ratioP1;P1;durP2;ratioP2;P2;SDS_P1;SDS_P2;PMS_P1;PMS_P2;Temp;Humidity;BMP_temperature;BMP_pressure;BME280_temperature;BME280_humidity;BME280_pressure;Samples;Min_cycle;Max_cycle;Signal;HPM_P1;HPM_P2
2023/05/23 00:02:07;;;;;;;11.27;7.10;;;;;;;12.95;100.00;95035.72;5019546;28;20237;-73
2023/05/23 00:04:35;;;;;;;12.27;7.13;;;;;;;12.93;100.00;95029.06;5033867;28;20238;-74
2023/05/23 00:07:02;;;;;;;11.20;7.60;;;;;;;12.96;100.00;95026.81;5031591;28;20241;-74
2023/05/23 00:09:27;;;;;;;11.30;7.03;;;;;;;12.73;100.00;95031.78;5019160;28;20287;-74
2023/05/23 00:11:53;;;;;;;12.40;7.50;;;;;;;12.63;100.00;95032.22;5042612;28;20242;-75
2023/05/23 00:14:18;;;;;;;13.43;7.33;;;;;;;12.91;100.00;95038.97;5033878;28;20953;-74
2023/05/23 00:16:44;;;;;;;13.30;7.43;;;;;;;12.92;100.00;95024.84;5034281;28;20225;-73
2023/05/23 00:19:10;;;;;;;12.60;7.60;;;;;;;12.83;100.00;95032.13;5032188;28;20436;-73
2023/05/23 00:21:36;;;;;;;13.00;8.30;;;;;;;12.98;100.00;95026.59;5017433;28;20292;-73
2023/05/23 00:24:01;;;;;;;11.30;7.67;;;;;;;12.92;100.00;95023.00;5033323;28;20302;-73
2023/05/23 00:26:28;;;;;;;12.83;7.90;;;;;;;12.84;100.00;95031.13;5025528;28;20233;-74
2023/05/23 00:28:55;;;;;;;13.30;8.40;;;;;;;12.57;100.00;95032.28;5010141;28;20234;-73
2023/05/23 00:31:21;;;;;;;12.20;8.30;;;;;;;12.46;100.00;95019.81;5030611;28;20226;-73
2023/05/23 00:33:46;;;;;;;12.87;8.47;;;;;;;12.74;100.00;95028.16;5032090;28;20698;-72
2023/05/23 00:36:12;;;;;;;14.40;8.30;;;;;;;12.80;100.00;95030.72;5031104;28;20234;-72
2023/05/23 00:38:38;;;;;;;12.90;8.23;;;;;;;12.79;100.00;95028.34;5009406;28;20713;-73
2023/05/23 00:41:04;;;;;;;13.10;8.53;;;;;;;12.69;100.00;95035.84;5038190;28;20780;-73
2023/05/23 00:43:30;;;;;;;14.40;8.80;;;;;;;12.71;100.00;95028.56;5018696;28;20368;-73
2023/05/23 00:45:56;;;;;;;14.60;8.53;;;;;;;12.60;100.00;95022.16;5024480;28;20759;-73
2023/05/23 00:48:21;;;;;;;14.40;8.77;;;;;;;12.58;100.00;95026.81;5012252;28;20370;-73
2023/05/23 00:50:47;;;;;;;14.40;8.20;;;;;;;12.66;100.00;95023.13;5032092;28;20742;-74
2023/05/23 00:53:12;;;;;;;13.60;8.47;;;;;;;12.63;100.00;95023.56;5018310;28;20287;-74
2023/05/23 00:55:38;;;;;;;12.53;8.83;;;;;;;12.61;100.00;95028.22;5003125;28;20230;-73
2023/05/23 00:58:04;;;;;;;11.93;8.23;;;;;;;12.62;100.00;95025.38;5036356;28;20238;-73
2023/05/23 01:00:29;;;;;;;13.67;8.33;;;;;;;12.63;100.00;95026.19;5019928;28;20237;-73
2023/05/23 01:02:55;;;;;;;13.57;8.70;;;;;;;12.45;100.00;95026.88;5016169;28;20233;-74
2023/05/23 01:05:23;;;;;;;15.80;8.67;;;;;;;12.43;100.00;95042.03;5034227;28;20221;-73
2023/05/23 01:07:49;;;;;;;12.63;8.50;;;;;;;12.46;100.00;95032.94;5017032;28;20252;-74
2023/05/23 01:10:16;;;;;;;14.40;8.83;;;;;;;12.56;100.00;95034.09;5018417;28;20236;-74
2023/05/23 01:13:13;;;;;;;13.93;8.37;;;;;;;12.63;100.00;95034.06;5015222;28;20242;-73
2023/05/23 01:15:48;;;;;;;11.47;8.33;;;;;;;12.67;100.00;95030.81;5034694;28;20316;-73
2023/05/23 01:18:18;;;;;;;14.70;8.60;;;;;;;12.67;100.00;95032.63;5041321;28;20249;-73
2023/05/23 01:20:53;;;;;;;15.77;9.30;;;;;;;12.81;100.00;95026.28;5006298;28;20947;-73
2023/05/23 01:23:37;;;;;;;14.17;9.20;;;;;;;12.86;100.00;95023.84;5000813;28;20283;-73
2023/05/23 01:26:12;;;;;;;16.20;9.20;;;;;;;12.69;100.00;95033.22;5027536;28;20229;-73
2023/05/23 01:28:41;;;;;;;15.17;8.87;;;;;;;12.56;100.00;95033.31;5029985;28;20232;-73
2023/05/23 01:31:07;;;;;;;12.93;8.57;;;;;;;12.66;100.00;95031.00;5032697;28;20253;-74
2023/05/23 01:33:33;;;;;;;13.53;9.13;;;;;;;12.58;100.00;95031.28;5008639;28;20775;-73
2023/05/23 01:36:01;;;;;;;14.57;8.80;;;;;;;12.48;100.00;95029.09;5033887;28;20233;-74
2023/05/23 01:38:26;;;;;;;14.57;8.83;;;;;;;12.58;100.00;95033.88;5032372;28;20295;-74
2023/05/23 01:40:52;;;;;;;12.70;8.90;;;;;;;12.65;100.00;95032.84;5015837;28;20231;-72
2023/05/23 01:43:18;;;;;;;14.13;9.20;;;;;;;12.68;100.00;95032.41;5024525;28;20243;-73
2023/05/23 01:45:43;;;;;;;13.20;8.33;;;;;;;12.60;100.00;95026.59;5030178;28;20229;-74
2023/05/23 01:48:10;;;;;;;14.50;8.47;;;;;;;12.62;100.00;95021.94;5028507;28;20237;-74
2023/05/23 01:50:35;;;;;;;13.40;8.50;;;;;;;12.74;100.00;95017.66;5015583;28;20268;-73
2023/05/23 01:53:01;;;;;;;18.77;9.37;;;;;;;12.50;100.00;95015.75;4995175;28;20325;-73
2023/05/23 01:55:26;;;;;;;15.77;9.40;;;;;;;12.31;100.00;95022.69;5014559;28;20324;-73
2023/05/23 01:57:55;;;;;;;18.20;9.60;;;;;;;12.30;100.00;95015.03;5016293;28;20230;-73
2023/05/23 02:00:21;;;;;;;13.07;9.00;;;;;;;12.40;100.00;95012.75;5031357;28;20245;-73
2023/05/23 02:02:46;;;;;;;14.27;9.20;;;;;;;12.34;100.00;95016.22;5032773;28;20769;-73
2023/05/23 02:05:12;;;;;;;16.83;10.00;;;;;;;12.28;100.00;95017.84;5014266;28;20218;-74
2023/05/23 02:07:38;;;;;;;15.37;9.70;;;;;;;12.18;100.00;95021.94;5031613;28;20614;-74
2023/05/23 02:10:03;;;;;;;14.50;9.27;;;;;;;12.18;100.00;95018.28;5029542;28;20229;-74
2023/05/23 02:12:29;;;;;;;16.47;9.43;;;;;;;12.26;100.00;95024.31;5017352;28;20238;-73
2023/05/23 02:14:54;;;;;;;13.70;8.93;;;;;;;12.36;100.00;95022.88;5033769;28;20233;-73
2023/05/23 02:17:21;;;;;;;15.20;9.37;;;;;;;12.30;100.00;95021.06;5015999;28;20233;-73
2023/05/23 02:19:47;;;;;;;15.53;9.57;;;;;;;12.37;100.00;95013.97;5031680;28;20224;-74
2023/05/23 02:22:12;;;;;;;16.07;9.57;;;;;;;12.58;100.00;95020.75;5018122;28;20279;-74
2023/05/23 02:24:38;;;;;;;14.23;9.47;;;;;;;12.52;100.00;95014.53;5019145;28;20236;-74
2023/05/23 02:27:04;;;;;;;16.93;9.80;;;;;;;12.36;100.00;95015.00;5028814;28;20283;-74
2023/05/23 02:29:29;;;;;;;16.27;10.00;;;;;;;12.26;100.00;95022.50;5031075;28;20236;-73
2023/05/23 02:31:55;;;;;;;16.33;9.70;;;;;;;12.35;100.00;95013.38;5028048;28;20319;-73
2023/05/23 02:34:20;;;;;;;14.50;9.13;;;;;;;12.45;100.00;95013.75;5016906;28;20725;-74
2023/05/23 02:36:45;;;;;;;18.17;10.13;;;;;;;12.37;100.00;95013.19;5016318;28;20230;-73
2023/05/23 02:39:11;;;;;;;18.63;10.43;;;;;;;12.27;100.00;95010.19;5032677;28;20743;-72
2023/05/23 02:41:37;;;;;;;18.20;10.80;;;;;;;12.28;100.00;95007.34;5028385;28;20226;-73
2023/05/23 02:44:03;;;;;;;17.37;10.70;;;;;;;12.16;100.00;95009.00;5029045;28;20336;-74
2023/05/23 02:46:28;;;;;;;18.33;10.40;;;;;;;12.24;100.00;95008.78;5031884;28;20233;-74
2023/05/23 02:48:54;;;;;;;16.97;10.60;;;;;;;12.42;100.00;95003.66;5034110;28;20625;-73
2023/05/23 02:51:20;;;;;;;18.93;11.07;;;;;;;12.48;100.00;95007.28;5022554;28;20240;-73
2023/05/23 02:53:45;;;;;;;17.47;10.90;;;;;;;12.51;100.00;95006.88;5013259;28;20292;-73
2023/05/23 02:56:12;;;;;;;20.23;11.40;;;;;;;12.37;100.00;95002.69;5030198;28;20226;-74
2023/05/23 02:58:38;;;;;;;21.10;11.53;;;;;;;12.44;100.00;95006.88;5030771;28;20230;-73
2023/05/23 03:01:04;;;;;;;19.50;11.00;;;;;;;12.57;100.00;95004.19;5011727;28;20261;-73
2023/05/23 03:03:32;;;;;;;19.70;11.50;;;;;;;12.57;100.00;95011.25;5011519;28;20769;-73
2023/05/23 03:05:58;;;;;;;17.53;11.00;;;;;;;12.64;100.00;95006.78;5031859;28;20246;-74
2023/05/23 03:08:24;;;;;;;19.60;11.10;;;;;;;12.58;100.00;95005.81;4996018;28;20309;-74
2023/05/23 03:10:49;;;;;;;20.17;10.93;;;;;;;12.64;100.00;95004.16;5009700;28;20265;-74
2023/05/23 03:13:15;;;;;;;20.23;10.80;;;;;;;12.70;100.00;94998.09;5013789;28;20233;-73
2023/05/23 03:15:41;;;;;;;20.93;11.33;;;;;;;12.53;100.00;95004.81;4999791;28;20233;-73
2023/05/23 03:18:06;;;;;;;19.63;11.03;;;;;;;12.50;100.00;95003.44;5014223;28;20626;-73
2023/05/23 03:20:32;;;;;;;21.73;11.40;;;;;;;12.53;100.00;95010.09;5007642;28;20229;-74
2023/05/23 03:22:57;;;;;;;22.37;11.60;;;;;;;12.49;100.00;95012.31;5002764;28;20711;-74
2023/05/23 03:25:23;;;;;;;22.13;11.67;;;;;;;12.66;100.00;95016.06;5014155;28;20242;-74
2023/05/23 03:27:48;;;;;;;22.80;12.60;;;;;;;12.67;100.00;95012.44;5015828;28;20235;-74
2023/05/23 03:30:14;;;;;;;26.30;14.20;;;;;;;12.62;100.00;95019.31;4994104;28;20233;-73
2023/05/23 03:32:39;;;;;;;26.27;14.00;;;;;;;12.67;100.00;95028.19;5013085;28;20666;-73
2023/05/23 03:35:05;;;;;;;25.30;14.27;;;;;;;12.80;100.00;95027.31;4993582;28;20312;-73
2023/05/23 03:37:31;;;;;;;29.50;16.07;;;;;;;12.73;100.00;95026.53;5012157;28;20231;-73
2023/05/23 03:39:56;;;;;;;38.60;18.80;;;;;;;12.63;100.00;95026.19;5016181;28;20645;-74
2023/05/23 03:42:22;;;;;;;45.80;20.53;;;;;;;12.63;100.00;95026.97;4979878;28;20239;-74
2023/05/23 03:44:47;;;;;;;41.90;19.37;;;;;;;12.55;100.00;95031.69;4997417;28;20234;-74
2023/05/23 03:47:13;;;;;;;43.67;20.23;;;;;;;12.73;100.00;95031.78;5012998;28;20239;-74
2023/05/23 03:49:38;;;;;;;47.00;20.53;;;;;;;12.74;100.00;95031.59;5024918;28;20264;-73
2023/05/23 03:52:04;;;;;;;47.70;20.07;;;;;;;12.71;100.00;95034.63;4995340;28;20271;-73
2023/05/23 03:54:29;;;;;;;39.00;19.80;;;;;;;12.65;100.00;95039.91;5014272;28;20242;-73
2023/05/23 03:56:55;;;;;;;42.53;19.73;;;;;;;12.74;100.00;95038.66;4995320;28;20761;-74
2023/05/23 03:59:21;;;;;;;44.40;19.23;;;;;;;12.77;100.00;95040.88;5013051;28;20782;-73
2023/05/23 04:01:46;;;;;;;42.63;19.40;;;;;;;12.73;100.00;95045.72;5012588;28;20226;-74
2023/05/23 04:04:11;;;;;;;46.40;19.90;;;;;;;12.76;100.00;95039.25;5010919;28;20292;-73
2023/05/23 04:06:37;;;;;;;37.70;18.40;;;;;;;12.66;100.00;95031.81;5012287;28;20675;-73
2023/05/23 04:09:04;;;;;;;38.27;18.17;;;;;;;12.63;100.00;95031.44;5022357;28;20281;-74
2023/05/23 04:11:30;;;;;;;42.00;19.00;;;;;;;12.67;100.00;95027.38;5011850;28;20296;-74
2023/05/23 04:13:55;;;;;;;40.40;19.30;;;;;;;12.75;100.00;95032.41;5009717;28;20231;-74
2023/05/23 04:16:22;;;;;;;40.37;19.20;;;;;;;12.73;100.00;95031.78;5022687;28;20218;-74
2023/05/23 04:18:48;;;;;;;42.53;19.07;;;;;;;12.82;100.00;95030.53;5011149;28;20238;-73
2023/05/23 04:21:14;;;;;;;38.33;18.47;;;;;;;12.76;100.00;95034.00;5014287;28;20219;-73
2023/05/23 04:23:40;;;;;;;42.07;19.07;;;;;;;12.79;100.00;95036.22;5005285;28;20234;-72
2023/05/23 04:26:05;;;;;;;39.00;18.10;;;;;;;12.76;100.00;95037.44;5013213;28;20707;-74
2023/05/23 04:28:31;;;;;;;42.70;19.37;;;;;;;12.67;100.00;95037.88;5011756;28;20234;-73
2023/05/23 04:30:57;;;;;;;58.77;20.73;;;;;;;12.41;100.00;95041.44;5002305;28;20259;-75
2023/05/23 04:33:23;;;;;;;47.77;18.93;;;;;;;12.56;100.00;95044.59;4986431;28;20238;-73
2023/05/23 04:35:48;;;;;;;52.43;19.40;;;;;;;12.54;100.00;95037.94;5008387;28;20241;-74
2023/05/23 04:38:14;;;;;;;54.97;18.73;;;;;;;12.44;100.00;95040.22;5005837;28;20467;-74
2023/05/23 04:40:39;;;;;;;50.20;19.63;;;;;;;12.60;100.00;95042.38;5004687;28;20246;-73
2023/05/23 04:43:05;;;;;;;49.83;19.37;;;;;;;12.66;100.00;95044.13;5011017;28;20234;-73
2023/05/23 04:45:30;;;;;;;46.07;18.77;;;;;;;12.76;100.00;95047.13;5008658;28;20231;-74
2023/05/23 04:47:56;;;;;;;43.77;19.77;;;;;;;12.74;100.00;95049.97;5008645;28;20289;-73
2023/05/23 04:50:22;;;;;;;44.27;19.67;;;;;;;12.77;100.00;95054.00;4994923;28;20230;-74
2023/05/23 04:52:47;;;;;;;38.30;17.50;;;;;;;12.78;100.00;95058.22;5012113;28;20245;-74
2023/05/23 04:55:13;;;;;;;41.87;18.13;;;;;;;12.75;100.00;95051.56;4987042;28;20234;-74
2023/05/23 04:57:39;;;;;;;37.87;16.63;;;;;;;12.61;100.00;95054.50;5014410;28;20254;-73
2023/05/23 05:00:09;;;;;;;40.70;15.97;;;;;;;12.56;100.00;95057.72;4993405;28;20923;-75
2023/05/23 05:02:35;;;;;;;40.83;16.30;;;;;;;12.61;100.00;95060.53;4994832;28;20312;-74
2023/05/23 05:05:01;;;;;;;43.90;17.50;;;;;;;12.58;100.00;95063.59;5013389;28;20249;-74
2023/05/23 05:07:28;;;;;;;58.80;18.07;;;;;;;12.62;100.00;95063.97;4996221;28;20238;-73
2023/05/23 05:09:53;;;;;;;41.07;17.40;;;;;;;12.58;100.00;95060.16;5011340;28;20231;-75
2023/05/23 05:12:19;;;;;;;42.83;16.70;;;;;;;12.68;100.00;95065.78;5009245;28;20226;-74
2023/05/23 05:14:44;;;;;;;41.87;16.47;;;;;;;12.93;100.00;95064.03;4995839;28;20230;-74
2023/05/23 05:17:10;;;;;;;44.30;18.83;;;;;;;13.04;100.00;95068.59;4998304;28;20250;-73
2023/05/23 05:19:35;;;;;;;43.83;17.87;;;;;;;13.03;100.00;95068.81;4996337;28;20799;-74
2023/05/23 05:22:01;;;;;;;48.10;19.17;;;;;;;12.93;100.00;95069.28;4997573;28;20245;-74
2023/05/23 05:24:27;;;;;;;46.17;19.47;;;;;;;13.00;100.00;95075.28;5011328;28;21019;-75
2023/05/23 05:26:53;;;;;;;48.97;20.47;;;;;;;13.10;100.00;95080.94;5004876;28;20282;-75
2023/05/23 05:29:18;;;;;;;43.30;18.00;;;;;;;13.07;100.00;95073.47;4991609;28;20227;-73
2023/05/23 05:31:44;;;;;;;41.10;17.93;;;;;;;12.94;100.00;95065.66;5011739;28;20239;-74
2023/05/23 05:34:10;;;;;;;55.53;18.17;;;;;;;12.69;100.00;95072.63;4997673;28;20234;-75
2023/05/23 05:36:35;;;;;;;43.27;19.00;;;;;;;12.67;100.00;95072.03;4998270;28;20322;-74
2023/05/23 05:39:01;;;;;;;41.73;17.53;;;;;;;12.91;100.00;95068.69;5011927;28;20317;-75
2023/05/23 05:41:26;;;;;;;42.70;18.50;;;;;;;12.92;100.00;95074.75;5000355;28;20287;-74
2023/05/23 05:43:52;;;;;;;41.47;17.83;;;;;;;12.87;100.00;95072.75;5009325;28;20225;-74
2023/05/23 05:46:18;;;;;;;41.53;18.50;;;;;;;12.67;100.00;95085.16;4993147;28;20223;-74
2023/05/23 05:48:43;;;;;;;40.13;18.40;;;;;;;12.42;100.00;95079.00;4993456;28;20238;-74
2023/05/23 05:51:08;;;;;;;41.27;17.73;;;;;;;12.82;100.00;95068.09;4980407;28;20315;-74
2023/05/23 05:53:34;;;;;;;34.83;16.93;;;;;;;13.00;100.00;95083.19;5005224;28;20719;-74
2023/05/23 05:56:00;;;;;;;43.23;18.53;;;;;;;13.16;100.00;95074.03;5009941;28;20687;-75
2023/05/23 05:58:25;;;;;;;38.07;17.90;;;;;;;13.12;100.00;95083.34;5015362;28;20230;-74
2023/05/23 06:00:52;;;;;;;40.83;17.27;;;;;;;13.16;100.00;95080.09;5004231;28;20222;-74
2023/05/23 06:03:18;;;;;;;39.63;18.00;;;;;;;13.24;100.00;95071.97;5012717;28;20261;-74
2023/05/23 06:05:43;;;;;;;37.90;17.53;;;;;;;13.40;100.00;95076.69;5009118;28;20250;-74
2023/05/23 06:08:09;;;;;;;43.77;18.40;;;;;;;13.40;100.00;95079.31;5006212;28;20836;-74
2023/05/23 06:10:36;;;;;;;44.87;19.37;;;;;;;13.35;100.00;95079.16;5012369;28;20238;-75
2023/05/23 06:13:02;;;;;;;43.13;18.40;;;;;;;13.47;100.00;95087.16;4992748;28;20246;-76
2023/05/23 06:15:27;;;;;;;40.50;18.87;;;;;;;13.47;100.00;95076.66;5010837;28;20234;-74
2023/05/23 06:17:53;;;;;;;41.70;18.37;;;;;;;13.51;100.00;95080.47;5008525;28;20238;-75
2023/05/23 06:20:18;;;;;;;40.33;18.53;;;;;;;13.46;100.00;95089.00;5009034;28;20691;-74
2023/05/23 06:22:43;;;;;;;40.77;19.37;;;;;;;13.35;100.00;95084.41;5006622;28;20252;-76
2023/05/23 06:25:09;;;;;;;41.37;19.37;;;;;;;13.32;100.00;95079.59;5013335;28;20242;-74
2023/05/23 06:27:35;;;;;;;41.20;19.30;;;;;;;13.35;100.00;95084.41;5009523;28;20300;-75
2023/05/23 06:30:01;;;;;;;45.83;20.37;;;;;;;13.68;100.00;95081.56;5005533;28;20230;-75
2023/05/23 06:32:26;;;;;;;47.23;19.90;;;;;;;13.74;100.00;95079.88;4995943;28;20238;-75
2023/05/23 06:34:51;;;;;;;45.70;20.87;;;;;;;13.79;100.00;95085.31;5010000;28;20245;-74
2023/05/23 06:37:17;;;;;;;43.87;20.77;;;;;;;13.81;100.00;95085.91;4990208;28;20297;-75
2023/05/23 06:39:43;;;;;;;47.90;21.40;;;;;;;13.77;100.00;95082.91;5011048;28;20930;-75
2023/05/23 06:42:08;;;;;;;47.17;22.23;;;;;;;13.43;100.00;95086.81;4994594;28;20716;-75
2023/05/23 06:44:33;;;;;;;48.10;21.97;;;;;;;13.71;100.00;95083.75;4989940;28;20674;-74
2023/05/23 06:46:59;;;;;;;45.80;22.03;;;;;;;13.80;100.00;95081.69;4993204;28;20242;-74
2023/05/23 06:49:25;;;;;;;41.33;20.60;;;;;;;14.07;100.00;95072.50;5014486;28;20241;-74
2023/05/23 06:51:50;;;;;;;50.50;22.63;;;;;;;14.26;100.00;95074.13;4991935;28;20237;-75
2023/05/23 06:54:17;;;;;;;43.80;21.87;;;;;;;14.42;100.00;95078.88;4989687;28;20230;-74
2023/05/23 06:56:42;;;;;;;46.27;22.27;;;;;;;14.48;100.00;95070.09;5010480;28;20235;-75
2023/05/23 06:59:07;;;;;;;46.67;22.57;;;;;;;14.46;100.00;95066.06;5020619;28;20674;-75
2023/05/23 07:01:33;;;;;;;45.77;22.03;;;;;;;14.50;100.00;95069.88;5006999;28;20227;-74
2023/05/23 07:03:58;;;;;;;43.50;21.17;;;;;;;14.73;100.00;95062.94;5004288;28;20699;-73
2023/05/23 07:06:26;;;;;;;47.03;21.23;;;;;;;14.93;100.00;95059.22;4993938;28;20346;-76
2023/05/23 07:08:52;;;;;;;47.50;22.07;;;;;;;15.04;100.00;95063.75;4985145;28;20340;-74
2023/05/23 07:11:17;;;;;;;52.73;22.87;;;;;;;15.15;100.00;95068.25;4986759;28;20238;-75
2023/05/23 07:13:43;;;;;;;41.60;21.73;;;;;;;15.23;100.00;95062.69;5011805;28;20753;-74
2023/05/23 07:16:08;;;;;;;44.57;21.57;;;;;;;15.24;100.00;95054.53;5009434;28;20285;-74
2023/05/23 07:18:33;;;;;;;43.00;20.53;;;;;;;15.40;100.00;95056.53;4994072;28;20234;-75
2023/05/23 07:20:59;;;;;;;45.17;22.30;;;;;;;15.49;100.00;95057.03;5008411;28;20248;-74
2023/05/23 07:23:27;;;;;;;47.13;22.67;;;;;;;15.49;100.00;95052.56;5006544;28;20245;-74
2023/05/23 07:25:53;;;;;;;52.80;24.03;;;;;;;15.55;100.00;95044.78;5010246;28;20234;-74
2023/05/23 07:28:18;;;;;;;46.93;23.63;;;;;;;15.58;100.00;95045.13;4995128;28;20287;-74
2023/05/23 07:30:44;;;;;;;53.27;24.07;;;;;;;15.63;100.00;95039.16;5009035;28;20734;-74
2023/05/23 07:33:10;;;;;;;46.53;24.00;;;;;;;15.81;100.00;95034.59;4993168;28;20231;-73
2023/05/23 07:35:35;;;;;;;52.80;24.60;;;;;;;15.90;100.00;95040.34;5010535;28;20230;-76
2023/05/23 07:38:01;;;;;;;45.63;23.60;;;;;;;15.80;99.59;95032.19;5012890;28;20264;-73
2023/05/23 07:40:26;;;;;;;46.73;24.03;;;;;;;15.98;100.00;95035.53;5013888;28;20777;-73
2023/05/23 07:42:53;;;;;;;48.60;23.90;;;;;;;15.88;100.00;95030.00;5009572;28;20253;-74
2023/05/23 07:45:18;;;;;;;47.40;23.07;;;;;;;15.98;100.00;95035.53;5031396;28;20256;-74
2023/05/23 07:47:44;;;;;;;45.13;22.87;;;;;;;16.16;99.10;95027.50;5025057;28;20627;-73
2023/05/23 07:50:10;;;;;;;45.17;22.80;;;;;;;16.25;100.00;95035.84;5026258;28;20711;-73
2023/05/23 07:52:35;;;;;;;46.27;23.67;;;;;;;16.32;100.00;95031.25;5031138;28;20242;-74
2023/05/23 07:55:01;;;;;;;45.03;23.30;;;;;;;16.53;100.00;95032.50;5021897;28;20244;-74
2023/05/23 07:57:26;;;;;;;51.30;23.80;;;;;;;16.68;100.00;95032.81;5042176;28;20237;-74
2023/05/23 07:59:52;;;;;;;45.13;24.23;;;;;;;16.53;99.90;95033.31;5000870;28;20227;-74
2023/05/23 08:02:18;;;;;;;51.00;24.83;;;;;;;16.53;98.63;95028.03;4994997;28;20321;-75
2023/05/23 08:04:44;;;;;;;44.90;23.80;;;;;;;16.78;98.26;95017.97;5011972;28;21061;-75
2023/05/23 08:07:10;;;;;;;45.37;23.33;;;;;;;17.08;97.50;95022.19;5010768;28;20269;-74
2023/05/23 08:09:36;;;;;;;46.23;22.87;;;;;;;17.21;97.45;95017.44;5012638;28;20238;-74
2023/05/23 08:12:02;;;;;;;38.70;21.63;;;;;;;17.36;96.65;95022.19;5011069;28;20234;-75
2023/05/23 08:14:27;;;;;;;38.73;21.40;;;;;;;17.44;94.72;95016.50;5014850;28;20309;-73
2023/05/23 08:16:52;;;;;;;35.60;20.53;;;;;;;17.59;94.22;95021.28;5028803;28;20234;-73
2023/05/23 08:19:18;;;;;;;41.10;20.07;;;;;;;17.66;97.10;95013.97;5023178;28;20235;-75
2023/05/23 08:21:44;;;;;;;35.20;19.50;;;;;;;17.83;96.83;95017.44;4999178;28;20241;-73
2023/05/23 08:24:11;;;;;;;37.53;18.47;;;;;;;17.87;94.08;95023.84;4993898;28;20245;-74
2023/05/23 08:26:37;;;;;;;32.90;17.57;;;;;;;17.91;94.32;95027.63;5014093;28;20242;-74
2023/05/23 08:29:03;;;;;;;28.27;16.93;;;;;;;17.87;93.83;95019.34;4995853;28;20230;-74
2023/05/23 08:31:29;;;;;;;30.23;15.70;;;;;;;17.93;93.51;95026.34;5012840;28;20238;-75
2023/05/23 08:33:54;;;;;;;26.63;14.87;;;;;;;18.14;93.42;95019.50;4997403;28;20230;-82
2023/05/23 08:36:20;;;;;;;27.43;16.37;;;;;;;18.28;91.79;95014.63;5012573;28;20273;-83
2023/05/23 08:38:45;;;;;;;25.27;15.00;;;;;;;18.33;91.45;95015.50;4995690;28;20230;-81
2023/05/23 08:41:21;;;;;;;28.53;15.97;;;;;;;18.21;91.51;95011.34;5008740;28;20750;-82
2023/05/23 08:43:47;;;;;;;25.77;14.60;;;;;;;18.24;91.49;95010.88;5024969;28;20233;-81
2023/05/23 08:46:13;;;;;;;23.30;13.30;;;;;;;18.45;91.71;95005.59;5014897;28;20292;-83
2023/05/23 08:48:39;;;;;;;24.73;12.53;;;;;;;18.56;91.05;95012.66;5009376;28;20858;-82
2023/05/23 08:51:04;;;;;;;17.87;11.80;;;;;;;18.72;90.60;95005.69;4971509;28;20230;-75
2023/05/23 08:53:30;;;;;;;22.03;12.10;;;;;;;18.83;88.46;95018.03;4999374;28;20307;-74
2023/05/23 08:56:01;;;;;;;16.90;11.47;;;;;;;19.00;89.54;95013.44;5011525;28;20230;-73
2023/05/23 08:58:28;;;;;;;20.70;12.00;;;;;;;18.96;87.64;95006.22;5033759;28;20241;-74
2023/05/23 09:00:54;;;;;;;19.87;11.10;;;;;;;19.08;88.04;95009.56;5010067;28;20619;-73
2023/05/23 09:03:20;;;;;;;19.33;11.17;;;;;;;19.23;88.42;95004.38;5014999;28;20234;-74
2023/05/23 09:05:45;;;;;;;19.00;10.83;;;;;;;19.31;86.65;94999.44;5012924;28;20256;-74
2023/05/23 09:08:12;;;;;;;19.37;10.70;;;;;;;19.45;87.43;94997.19;5013081;28;20325;-74
2023/05/23 09:10:38;;;;;;;22.53;12.43;;;;;;;19.33;84.91;95002.63;5010746;28;20252;-75
2023/05/23 09:13:04;;;;;;;18.93;11.60;;;;;;;19.47;85.50;95008.34;5009600;28;20254;-75
2023/05/23 09:15:30;;;;;;;21.37;11.57;;;;;;;19.72;86.82;95000.63;4994578;28;20326;-75
2023/05/23 09:18:00;;;;;;;16.33;8.93;;;;;;;19.93;78.00;94998.91;5010509;28;20231;-74
2023/05/23 09:20:26;;;;;;;16.40;9.10;;;;;;;19.98;79.13;94994.44;5024106;28;20271;-74
2023/05/23 09:22:53;;;;;;;15.73;8.73;;;;;;;19.82;85.20;94987.38;5032807;28;20226;-73
2023/05/23 09:25:19;;;;;;;15.73;8.50;;;;;;;20.03;80.27;94991.00;5013983;28;20241;-74
2023/05/23 09:27:44;;;;;;;11.90;8.03;;;;;;;20.23;79.56;94987.72;5010427;28;20229;-75
2023/05/23 09:30:10;;;;;;;19.10;7.67;;;;;;;20.32;76.78;94986.97;5033743;28;20264;-73
2023/05/23 09:32:36;;;;;;;10.03;6.33;;;;;;;20.36;74.14;94990.69;5001864;28;20234;-74
2023/05/23 09:35:12;;;;;;;11.87;6.07;;;;;;;20.58;73.76;94987.88;5016271;28;20237;-73
2023/05/23 09:37:42;;;;;;;14.90;7.60;;;;;;;20.55;74.46;94985.72;5039195;28;20313;-74
2023/05/23 09:40:14;;;;;;;10.97;6.60;;;;;;;20.66;73.21;94982.03;5021430;28;20324;-75
2023/05/23 09:42:46;;;;;;;10.47;5.90;;;;;;;20.85;70.29;94988.50;5031911;28;20245;-74
2023/05/23 09:45:12;;;;;;;9.17;6.10;;;;;;;21.04;76.13;94972.88;5012521;28;20222;-75
2023/05/23 09:47:38;;;;;;;12.37;6.10;;;;;;;21.10;75.06;94974.50;5023798;28;20321;-75
2023/05/23 09:50:04;;;;;;;9.57;5.73;;;;;;;21.02;67.45;94978.44;5016547;28;20230;-75
2023/05/23 09:52:37;;;;;;;8.50;4.80;;;;;;;21.11;63.91;94968.91;5028016;28;20264;-72
2023/05/23 09:55:02;;;;;;;12.57;6.53;;;;;;;21.16;71.37;94971.56;5015370;28;20234;-74
2023/05/23 09:57:28;;;;;;;8.33;5.57;;;;;;;21.23;71.71;94961.47;5013663;28;20241;-73
2023/05/23 09:59:53;;;;;;;13.20;6.27;;;;;;;21.29;68.21;94956.94;5029336;28;20272;-75
2023/05/23 10:02:54;;;;;;;12.60;5.70;;;;;;;21.62;69.72;94959.09;5014563;28;20257;-75
2023/05/23 10:05:30;;;;;;;10.47;5.30;;;;;;;21.65;64.90;94968.41;5033891;28;20286;-74
2023/05/23 10:07:58;;;;;;;8.00;4.57;;;;;;;21.64;62.32;94959.63;5023332;28;20802;-74
2023/05/23 10:10:24;;;;;;;7.47;4.70;;;;;;;21.65;62.61;94963.91;5034177;28;20928;-81
2023/05/23 10:12:50;;;;;;;5.65;4.03;;;;;;;21.57;61.85;94958.28;5033331;28;20234;-87
2023/05/23 10:15:16;;;;;;;9.10;4.57;;;;;;;21.59;63.65;94958.84;5020548;28;20231;-85
2023/05/23 10:18:01;;;;;;;9.43;4.60;;;;;;;21.63;57.84;94963.38;5031619;28;20252;-86
2023/05/23 10:20:30;;;;;;;8.50;4.67;;;;;;;21.77;62.94;94961.75;5039987;28;20241;-81
2023/05/23 10:23:00;;;;;;;8.70;4.90;;;;;;;21.85;60.86;94955.91;5021961;28;20238;-83
2023/05/23 10:25:26;;;;;;;10.27;4.72;;;;;;;21.91;60.25;94951.38;5023031;28;20233;-82
2023/05/23 10:27:57;;;;;;;6.97;4.40;;;;;;;21.89;61.15;94951.66;5046936;28;20806;-81
2023/05/23 10:30:23;;;;;;;8.33;4.30;;;;;;;22.10;56.39;94955.88;5021968;28;20228;-82
2023/05/23 10:32:49;;;;;;;10.40;4.28;;;;;;;22.11;57.03;94948.69;5016676;28;20234;-83
2023/05/23 10:35:56;;;;;;;9.77;4.27;;;;;;;22.25;61.90;94948.91;5034826;28;20245;-84
2023/05/23 10:39:00;;;;;;;8.20;4.35;;;;;;;22.38;57.59;94941.13;5041411;28;20734;-84
2023/05/23 10:41:33;;;;;;;7.57;4.03;;;;;;;22.36;59.22;94945.94;5033769;28;20233;-82
2023/05/23 10:44:07;;;;;;;6.28;4.10;;;;;;;22.20;52.46;94933.72;5030743;28;20750;-85
2023/05/23 10:46:53;;;;;;;9.50;4.28;;;;;;;22.16;53.99;94935.34;5034751;28;20228;-83
2023/05/23 10:49:19;;;;;;;7.82;4.10;;;;;;;22.17;55.14;94936.13;5026513;28;20295;-82
2023/05/23 10:51:49;;;;;;;6.27;4.30;;;;;;;22.21;56.63;94932.63;5011076;28;20222;-84
2023/05/23 10:54:15;;;;;;;6.57;4.50;;;;;;;22.46;54.29;94937.09;5015969;28;21095;-81
2023/05/23 10:56:41;;;;;;;9.00;4.45;;;;;;;22.41;55.78;94932.59;5030286;28;20229;-82
2023/05/23 10:59:06;;;;;;;7.57;3.97;;;;;;;22.59;51.07;94931.97;5032058;28;20718;-84
2023/05/23 11:01:31;;;;;;;5.00;3.75;;;;;;;22.51;51.70;94932.56;5036305;28;20686;-80
2023/05/23 11:03:57;;;;;;;7.43;4.30;;;;;;;22.41;50.90;94927.25;5016845;28;20238;-83
2023/05/23 11:06:37;;;;;;;5.55;3.88;;;;;;;22.48;48.94;94926.94;5013186;28;21126;-79
2023/05/23 11:09:09;;;;;;;10.13;4.32;;;;;;;22.22;54.54;94922.78;5032261;28;20300;-86
2023/05/23 11:11:53;;;;;;;7.55;4.05;;;;;;;22.41;52.23;94924.59;5019985;28;20368;-83
2023/05/23 11:14:36;;;;;;;5.65;3.97;;;;;;;22.55;50.70;94920.25;5031653;28;20269;-82